createdAt,value
2023-01-26T00:02:21.919Z,3.89
2023-01-26T00:07:23.502Z,3.91
2023-01-26T00:12:25.065Z,3.92
2023-01-26T00:17:26.612Z,3.94
2023-01-26T00:22:30.626Z,3.88
2023-01-26T00:27:41.309Z,3.89
2023-01-26T00:32:49.614Z,3.89
2023-01-26T00:37:51.228Z,3.88
2023-01-26T00:42:54.526Z,3.88
2023-01-26T00:48:00.404Z,3.87
2023-01-26T00:53:02.115Z,3.83
2023-01-26T00:58:10.322Z,3.82
2023-01-26T01:03:11.931Z,3.83
2023-01-26T01:08:15.791Z,3.82
2023-01-26T01:13:24.475Z,3.85
2023-01-26T01:18:26.155Z,3.84
2023-01-26T01:23:31.013Z,3.81
2023-01-26T01:28:37.149Z,3.78
2023-01-26T01:33:41.387Z,3.78
2023-01-26T01:38:49.369Z,3.81
2023-01-26T01:44:12.805Z,3.81
2023-01-26T01:49:24.106Z,3.83
2023-01-26T01:54:33.376Z,3.85
2023-01-26T01:59:37.623Z,3.85
2023-01-26T02:04:39.302Z,3.84
2023-01-26T02:10:14.193Z,3.85
2023-01-26T02:15:15.985Z,3.85
2023-01-26T02:20:36.537Z,3.85
2023-01-26T02:25:44.571Z,3.85
2023-01-26T02:30:49.580Z,3.82
2023-01-26T02:35:53.499Z,3.81
2023-01-26T02:41:34.310Z,3.80
2023-01-26T02:46:38.534Z,3.79
2023-01-26T02:51:40.461Z,3.77
2023-01-26T02:56:44.756Z,3.74
2023-01-26T03:01:50.904Z,3.68
2023-01-26T03:06:53.014Z,3.63
2023-01-26T03:11:57.080Z,3.62
2023-01-26T03:16:58.651Z,3.63
2023-01-26T03:22:20.916Z,3.64
2023-01-26T03:27:30.547Z,3.66
2023-01-26T03:32:37.088Z,3.67
2023-01-26T03:37:53.468Z,3.65
2023-01-26T03:43:26.471Z,3.62
2023-01-26T03:48:47.282Z,3.60
2023-01-26T03:54:10.869Z,3.62
2023-01-26T03:59:17.685Z,3.63
2023-01-26T04:04:38.444Z,3.66
2023-01-26T04:09:43.333Z,3.66
2023-01-26T04:15:08.823Z,3.66
2023-01-26T04:20:29.624Z,3.64
2023-01-26T04:25:31.292Z,3.62
2023-01-26T04:30:33.318Z,3.65
2023-01-26T04:35:37.442Z,3.65
2023-01-26T04:40:45.912Z,3.67
2023-01-26T04:46:04.635Z,3.69
2023-01-26T04:51:12.556Z,3.71
2023-01-26T04:56:28.932Z,3.71
2023-01-26T05:01:31.715Z,3.69
2023-01-26T05:06:38.890Z,3.71
2023-01-26T05:11:40.584Z,3.69
2023-01-26T05:17:02.990Z,3.69
2023-01-26T05:22:23.028Z,3.71
2023-01-26T05:27:44.549Z,3.72
2023-01-26T05:32:53.582Z,3.72
2023-01-26T05:38:06.001Z,3.70
2023-01-26T05:43:08.818Z,3.69
2023-01-26T05:48:19.698Z,3.69
2023-01-26T05:53:23.788Z,3.67
2023-01-26T05:58:28.611Z,3.64
2023-01-26T06:03:35.704Z,3.59
2023-01-26T06:08:44.785Z,3.56
2023-01-26T06:14:22.715Z,3.54
2023-01-26T06:19:24.669Z,3.46
2023-01-26T06:24:31.482Z,3.40
2023-01-26T06:29:34.005Z,3.41
2023-01-26T06:34:40.870Z,3.43
2023-01-26T06:39:43.921Z,3.44
2023-01-26T06:44:46.705Z,3.48
2023-01-26T06:49:48.509Z,3.52
2023-01-26T06:54:54.378Z,3.55
2023-01-26T07:00:16.637Z,3.57
2023-01-26T07:05:39.599Z,3.59
2023-01-26T07:10:43.199Z,3.60
2023-01-26T07:15:44.691Z,3.62
2023-01-26T07:20:48.320Z,3.61
2023-01-26T07:25:49.826Z,3.61
2023-01-26T07:31:01.241Z,3.62
2023-01-26T07:36:06.390Z,3.64
2023-01-26T07:41:12.206Z,3.66
2023-01-26T07:46:17.715Z,3.69
2023-01-26T07:51:25.908Z,3.69
2023-01-26T07:56:27.490Z,3.71
2023-01-26T08:01:29.073Z,3.72
2023-01-26T08:06:30.617Z,3.72
2023-01-26T08:11:34.533Z,3.76
2023-01-26T08:16:42.263Z,3.77
2023-01-26T08:21:46.156Z,3.77
2023-01-26T08:26:47.665Z,3.79
2023-01-26T08:31:56.630Z,3.80
2023-01-26T08:37:01.021Z,3.78
2023-01-26T08:42:02.504Z,3.72
2023-01-26T08:47:09.496Z,3.68
2023-01-26T08:52:10.996Z,3.71
2023-01-26T08:57:12.572Z,3.72
2023-01-26T09:02:16.570Z,3.75
2023-01-26T09:07:20.785Z,3.75
2023-01-26T09:12:24.750Z,3.75
2023-01-26T09:17:26.343Z,3.77
2023-01-26T09:22:27.823Z,3.78
2023-01-26T09:27:35.348Z,3.79
2023-01-26T09:32:38.053Z,3.82
2023-01-26T09:37:39.552Z,3.85
2023-01-26T09:43:13.243Z,3.87
2023-01-26T09:48:26.474Z,3.88
2023-01-26T09:53:52.920Z,3.88
2023-01-26T09:59:37.669Z,3.90
2023-01-26T10:04:44.865Z,3.88
2023-01-26T10:09:52.158Z,3.88
2023-01-26T10:15:04.901Z,3.90
2023-01-26T10:20:30.587Z,3.92
2023-01-26T10:25:38.795Z,3.92
2023-01-26T10:30:44.260Z,3.93
2023-01-26T10:35:46.212Z,3.97
2023-01-26T10:40:47.840Z,4.00
2023-01-26T10:45:49.436Z,4.02
2023-01-26T10:50:55.654Z,4.00
2023-01-26T10:56:18.099Z,3.98
2023-01-26T11:01:23.197Z,3.94
2023-01-26T11:06:29.571Z,3.91
2023-01-26T11:11:33.081Z,3.85
2023-01-26T11:16:34.784Z,3.81
2023-01-26T11:21:47.332Z,3.79
2023-01-26T11:27:26.018Z,3.79
2023-01-26T11:32:38.223Z,3.75
2023-01-26T11:38:02.023Z,3.76
2023-01-26T11:43:30.668Z,3.74
2023-01-26T11:48:54.065Z,3.71
2023-01-26T11:54:20.292Z,3.66
2023-01-26T11:59:30.042Z,3.66
2023-01-26T12:04:37.761Z,3.68
2023-01-26T12:09:48.240Z,3.73
2023-01-26T12:15:11.528Z,3.77
2023-01-26T12:20:35.912Z,3.76
2023-01-26T12:25:49.310Z,3.74
2023-01-26T12:31:06.491Z,3.73
2023-01-26T12:36:31.450Z,3.75
2023-01-26T12:42:04.783Z,3.80
2023-01-26T12:47:17.027Z,3.85
2023-01-26T12:52:57.579Z,3.89
2023-01-26T12:58:12.737Z,3.88
2023-01-26T13:03:31.015Z,3.85
2023-01-26T13:08:51.514Z,3.79
2023-01-26T13:13:54.317Z,3.71
2023-01-26T13:19:02.609Z,3.62
2023-01-26T13:24:18.701Z,3.53
2023-01-26T13:29:31.892Z,3.46
2023-01-26T13:34:41.566Z,3.47
2023-01-26T13:39:51.755Z,3.52
2023-01-26T13:45:20.005Z,3.57
2023-01-26T13:50:32.930Z,3.55
2023-01-26T13:55:37.665Z,3.47
2023-01-26T14:00:42.722Z,3.47
2023-01-26T14:05:54.124Z,3.55
2023-01-26T14:10:55.908Z,3.61
2023-01-26T14:16:00.475Z,3.65
2023-01-26T14:21:29.070Z,3.70
2023-01-26T14:26:34.084Z,3.75
2023-01-26T14:31:36.892Z,3.80
2023-01-26T14:36:39.463Z,3.86
2023-01-26T14:41:43.194Z,3.91
2023-01-26T14:46:52.802Z,3.91
2023-01-26T14:51:59.501Z,3.87
2023-01-26T14:57:08.112Z,3.84
2023-01-26T15:02:24.951Z,3.79
2023-01-26T15:07:56.545Z,3.78
2023-01-26T15:13:15.316Z,3.79
2023-01-26T15:18:20.579Z,3.78
2023-01-26T15:23:34.520Z,3.81
2023-01-26T15:28:37.321Z,3.82
2023-01-26T15:33:47.100Z,3.83
2023-01-26T15:38:50.997Z,3.81
2023-01-26T15:43:54.784Z,3.78
2023-01-26T15:48:56.511Z,3.77
2023-01-26T15:54:00.352Z,3.76
2023-01-26T15:59:06.760Z,3.78
2023-01-26T16:04:17.642Z,3.79
2023-01-26T16:09:23.502Z,3.78
2023-01-26T16:14:27.371Z,3.77
2023-01-26T16:19:35.339Z,3.76
2023-01-26T16:24:40.218Z,3.75
2023-01-26T16:29:44.099Z,3.74
2023-01-26T16:34:45.598Z,3.76
2023-01-26T16:39:47.106Z,3.74
2023-01-26T16:44:48.922Z,3.72
2023-01-26T16:49:52.813Z,3.70
2023-01-26T16:54:56.592Z,3.69
2023-01-26T17:00:00.544Z,3.67
2023-01-26T17:05:02.158Z,3.67
2023-01-26T17:10:03.861Z,3.65
2023-01-26T17:15:06.930Z,3.62
2023-01-26T17:20:18.802Z,3.58
2023-01-26T17:25:23.514Z,3.50
2023-01-26T17:30:25.175Z,3.46
2023-01-26T17:35:26.750Z,3.47
2023-01-26T17:40:30.726Z,3.49
2023-01-26T17:45:39.452Z,3.54
2023-01-26T17:50:52.456Z,3.58
2023-01-26T17:55:56.063Z,3.61
2023-01-26T18:00:57.731Z,3.64
2023-01-26T18:06:01.724Z,3.68
2023-01-26T18:11:07.306Z,3.72
2023-01-26T18:16:16.678Z,3.73
2023-01-26T18:21:24.725Z,3.75
2023-01-26T18:26:29.157Z,3.76
2023-01-26T18:31:36.312Z,3.77
2023-01-26T18:36:37.872Z,3.79
2023-01-26T18:41:41.928Z,3.80
2023-01-26T18:46:43.494Z,3.80
2023-01-26T18:51:49.603Z,3.81
2023-01-26T18:56:53.568Z,3.82
2023-01-26T19:01:57.424Z,3.83
2023-01-26T19:07:03.985Z,3.84
2023-01-26T19:12:06.285Z,3.86
2023-01-26T19:17:13.835Z,3.86
2023-01-26T19:22:15.335Z,3.88
2023-01-26T19:27:16.953Z,3.88
2023-01-26T19:32:25.903Z,3.89
2023-01-26T19:37:29.950Z,3.89
2023-01-26T19:42:31.589Z,3.88
2023-01-26T19:47:33.201Z,3.87
2023-01-26T19:52:34.964Z,3.88
2023-01-26T19:57:36.613Z,3.87
2023-01-26T20:02:46.598Z,3.88
2023-01-26T20:07:48.222Z,3.87
2023-01-26T20:12:49.783Z,3.85
2023-01-26T20:17:51.343Z,3.82
2023-01-26T20:22:52.972Z,3.78
2023-01-26T20:27:54.858Z,3.77
2023-01-26T20:32:58.736Z,3.73
2023-01-26T20:38:03.480Z,3.67
2023-01-26T20:43:05.075Z,3.64
2023-01-26T20:48:09.043Z,3.54
2023-01-26T20:53:12.147Z,3.44
2023-01-26T20:58:18.591Z,3.36
2023-01-26T21:03:22.322Z,3.33
2023-01-26T21:08:24.263Z,3.31
2023-01-26T21:13:27.835Z,3.27
2023-01-26T21:18:31.567Z,3.26
2023-01-26T21:23:37.307Z,3.29
2023-01-26T21:28:41.163Z,3.26
2023-01-26T21:33:45.431Z,3.25
2023-01-26T21:38:49.234Z,3.27
2023-01-26T21:43:57.307Z,3.23
2023-01-26T21:49:02.026Z,3.21
2023-01-26T21:54:08.208Z,3.25
2023-01-26T21:59:16.667Z,3.23
2023-01-26T22:04:22.144Z,3.29
2023-01-26T22:09:29.939Z,3.32
2023-01-26T22:14:31.469Z,3.33
2023-01-26T22:19:33.110Z,3.30
2023-01-26T22:24:34.727Z,3.20
2023-01-26T22:29:38.625Z,3.10
2023-01-26T22:34:40.293Z,3.06
2023-01-26T22:39:44.517Z,2.96
2023-01-26T22:44:48.472Z,2.85
2023-01-26T22:49:56.898Z,2.79
2023-01-26T22:55:03.561Z,2.75
2023-01-26T23:00:08.482Z,2.71
2023-01-26T23:05:13.178Z,2.71
2023-01-26T23:10:15.314Z,2.64
2023-01-26T23:15:17.071Z,2.53
2023-01-26T23:20:20.421Z,2.41
2023-01-26T23:25:40.551Z,2.36
2023-01-26T23:30:42.152Z,2.31
2023-01-26T23:35:44.331Z,2.32
2023-01-26T23:40:49.529Z,2.27
2023-01-26T23:45:53.888Z,2.13
2023-01-26T23:51:01.736Z,2.12
2023-01-26T23:56:08.722Z,2.09
